Time;durP1;ratioP1;P1;durP2;ratioP2;P2;SDS_P1;SDS_P2;PMS_P1;PMS_P2;Temp;Humidity;BMP_temperature;BMP_pressure;BME280_temperature;BME280_humidity;BME280_pressure;Samples;Min_cycle;Max_cycle;Signal;HPM_P1;HPM_P2
2023/09/02 00:00:03;;;;;;;18.52;16.98;;;;;;;17.66;100.00;101499.38;5094578;28;20483;-63
2023/09/02 00:02:28;;;;;;;17.25;15.82;;;;;;;17.68;100.00;101491.19;5112295;28;20093;-63
2023/09/02 00:04:54;;;;;;;17.33;15.73;;;;;;;17.64;100.00;101490.56;5114488;28;20020;-63
2023/09/02 00:07:22;;;;;;;18.58;17.05;;;;;;;17.66;100.00;101480.56;5113896;27;20080;-63
2023/09/02 00:09:47;;;;;;;18.23;16.57;;;;;;;17.63;100.00;101479.97;5133830;27;20038;-63
2023/09/02 00:12:15;;;;;;;18.05;16.25;;;;;;;17.55;100.00;101485.97;5135446;27;20382;-63
2023/09/02 00:14:43;;;;;;;18.67;17.00;;;;;;;17.62;100.00;101497.94;5106856;28;20513;-63
2023/09/02 00:17:08;;;;;;;18.83;17.00;;;;;;;17.68;100.00;101493.88;5097682;28;20049;-64
2023/09/02 00:19:34;;;;;;;19.05;17.08;;;;;;;17.58;100.00;101487.53;5096081;28;20027;-63
2023/09/02 00:21:59;;;;;;;18.90;17.13;;;;;;;17.64;100.00;101493.25;5112223;27;20047;-63
2023/09/02 00:24:25;;;;;;;20.35;18.55;;;;;;;17.67;100.00;101487.63;5134547;27;20035;-63
2023/09/02 00:26:50;;;;;;;18.30;16.60;;;;;;;17.70;100.00;101491.91;5134401;27;20031;-63
2023/09/02 00:29:18;;;;;;;18.80;17.05;;;;;;;17.69;100.00;101484.81;5116728;27;20106;-63
2023/09/02 00:31:43;;;;;;;17.73;16.20;;;;;;;17.68;100.00;101493.88;5135021;27;20047;-63
2023/09/02 00:34:08;;;;;;;17.75;16.10;;;;;;;17.67;100.00;101493.00;5133582;27;20043;-63
2023/09/02 00:36:34;;;;;;;17.23;15.77;;;;;;;17.60;100.00;101497.19;5134581;27;20477;-63
2023/09/02 00:38:59;;;;;;;17.60;16.00;;;;;;;17.59;100.00;101490.13;5134876;27;20051;-63
2023/09/02 00:41:29;;;;;;;18.00;16.20;;;;;;;17.68;100.00;101508.19;5101543;28;20092;-63
2023/09/02 00:43:58;;;;;;;18.88;17.08;;;;;;;17.64;100.00;101500.47;5114751;27;20038;-63
2023/09/02 00:46:24;;;;;;;19.75;17.85;;;;;;;17.68;100.00;101501.97;5113983;28;20429;-63
2023/09/02 00:48:49;;;;;;;18.88;17.00;;;;;;;17.58;100.00;101499.16;5114246;28;20024;-63
2023/09/02 00:51:15;;;;;;;20.20;18.33;;;;;;;17.62;100.00;101500.63;5114454;27;20015;-63
2023/09/02 00:53:40;;;;;;;17.85;16.13;;;;;;;17.54;100.00;101508.47;5113620;28;20073;-63
2023/09/02 00:56:06;;;;;;;18.98;17.23;;;;;;;17.54;100.00;101504.94;5095055;28;20031;-63
2023/09/02 00:58:34;;;;;;;19.20;17.25;;;;;;;17.60;100.00;101501.72;5095848;28;20496;-63
2023/09/02 01:01:02;;;;;;;19.92;17.58;;;;;;;17.62;100.00;101495.25;5127627;27;20031;-62
2023/09/02 01:03:27;;;;;;;18.37;16.67;;;;;;;17.53;100.00;101498.69;5115544;27;20648;-63
2023/09/02 01:05:53;;;;;;;19.23;17.42;;;;;;;17.53;100.00;101503.19;5133942;27;20030;-62
2023/09/02 01:08:19;;;;;;;20.50;18.70;;;;;;;17.57;100.00;101505.53;5115685;27;20404;-63
2023/09/02 01:10:44;;;;;;;19.38;17.42;;;;;;;17.57;100.00;101507.38;5114059;27;20019;-63
2023/09/02 01:13:10;;;;;;;19.13;17.25;;;;;;;17.58;100.00;101501.00;5115481;27;20099;-63
2023/09/02 01:15:35;;;;;;;19.90;17.90;;;;;;;17.55;100.00;101503.94;5116345;27;20492;-63
2023/09/02 01:18:01;;;;;;;20.67;18.50;;;;;;;17.61;100.00;101506.97;5114417;27;20535;-63
2023/09/02 01:20:39;;;;;;;18.70;17.00;;;;;;;17.56;100.00;101511.91;5114191;27;20049;-63
2023/09/02 01:23:15;;;;;;;20.05;17.95;;;;;;;17.62;100.00;101513.22;5095010;28;20043;-63
2023/09/02 01:26:11;;;;;;;20.00;18.10;;;;;;;17.63;100.00;101514.94;5113340;28;20039;-63
2023/09/02 01:28:40;;;;;;;17.48;15.93;;;;;;;17.50;100.00;101512.41;5094396;28;20024;-63
2023/09/02 01:31:09;;;;;;;18.67;16.92;;;;;;;17.54;100.00;101502.25;5096027;28;20033;-63
2023/09/02 01:33:36;;;;;;;18.52;16.67;;;;;;;17.59;100.00;101513.44;5095693;28;20104;-63
2023/09/02 01:36:02;;;;;;;18.13;16.63;;;;;;;17.51;100.00;101515.94;5112708;28;20031;-63
2023/09/02 01:38:31;;;;;;;18.35;16.65;;;;;;;17.50;100.00;101512.41;5097612;27;20088;-63
2023/09/02 01:41:00;;;;;;;20.10;18.08;;;;;;;17.49;100.00;101513.34;5115413;27;20027;-63
2023/09/02 01:43:27;;;;;;;19.95;18.08;;;;;;;17.51;100.00;101529.38;5133616;27;20026;-63
2023/09/02 01:45:52;;;;;;;18.80;17.10;;;;;;;17.57;100.00;101524.34;5133721;27;20072;-63
2023/09/02 01:48:18;;;;;;;19.75;18.13;;;;;;;17.59;100.00;101529.59;5133685;27;20102;-63
2023/09/02 01:50:47;;;;;;;19.10;17.38;;;;;;;17.58;100.00;101527.88;5111802;27;20023;-63
2023/09/02 01:53:13;;;;;;;18.42;16.85;;;;;;;17.58;100.00;101526.06;5114971;27;20034;-63
2023/09/02 01:55:39;;;;;;;19.13;17.35;;;;;;;17.61;100.00;101538.41;5133327;27;20401;-63
2023/09/02 01:58:04;;;;;;;19.42;17.35;;;;;;;17.59;100.00;101537.66;5113003;27;20027;-63
2023/09/02 02:00:31;;;;;;;18.23;16.52;;;;;;;17.58;100.00;101534.13;5112765;28;20015;-63
2023/09/02 02:02:56;;;;;;;18.00;16.25;;;;;;;17.62;100.00;101532.06;5112703;28;20020;-63
2023/09/02 02:05:29;;;;;;;19.35;17.60;;;;;;;17.63;100.00;101536.44;5111935;28;20031;-63
2023/09/02 02:08:01;;;;;;;19.30;17.17;;;;;;;17.57;100.00;101528.88;5113400;27;20501;-63
2023/09/02 02:10:30;;;;;;;17.13;15.73;;;;;;;17.45;100.00;101528.06;5113681;27;20030;-63
2023/09/02 02:13:00;;;;;;;17.67;16.17;;;;;;;17.52;100.00;101540.00;5112563;28;20474;-63
2023/09/02 02:15:29;;;;;;;17.85;15.85;;;;;;;17.58;100.00;101534.13;5112050;28;20031;-63
2023/09/02 02:17:54;;;;;;;18.85;17.05;;;;;;;17.62;100.00;101529.38;5096646;27;20027;-63
2023/09/02 02:20:21;;;;;;;17.63;15.88;;;;;;;17.60;100.00;101542.09;5113697;27;20068;-63
2023/09/02 02:22:46;;;;;;;16.20;14.63;;;;;;;17.59;100.00;101535.84;5073807;28;20048;-63
2023/09/02 02:25:12;;;;;;;16.23;14.70;;;;;;;17.58;100.00;101541.34;5086660;28;20375;-63
2023/09/02 02:27:37;;;;;;;18.58;16.30;;;;;;;17.52;100.00;101531.94;5112575;28;20039;-63
2023/09/02 02:30:03;;;;;;;16.70;15.07;;;;;;;17.57;100.00;101543.19;5112359;28;20024;-63
2023/09/02 02:32:29;;;;;;;17.08;15.30;;;;;;;17.55;100.00;101550.50;5127112;27;20389;-63
2023/09/02 02:34:56;;;;;;;15.48;14.02;;;;;;;17.51;100.00;101546.38;5132103;27;20023;-63
2023/09/02 02:37:22;;;;;;;14.63;13.32;;;;;;;17.52;100.00;101548.06;5132497;27;20381;-63
2023/09/02 02:39:47;;;;;;;16.30;14.25;;;;;;;17.55;100.00;101553.22;5132719;27;20020;-63
2023/09/02 02:42:14;;;;;;;17.33;14.07;;;;;;;17.53;100.00;101551.63;5131768;27;20466;-63
2023/09/02 02:44:40;;;;;;;15.88;14.27;;;;;;;17.51;100.00;101553.59;5130817;28;20033;-63
2023/09/02 02:47:05;;;;;;;16.45;13.88;;;;;;;17.46;100.00;101548.56;5114398;28;20027;-63
2023/09/02 02:49:31;;;;;;;14.80;12.95;;;;;;;17.39;100.00;101540.16;5113732;28;20057;-64
2023/09/02 02:51:56;;;;;;;16.35;14.15;;;;;;;17.52;100.00;101550.75;5114270;28;20060;-63
2023/09/02 02:54:22;;;;;;;14.73;13.27;;;;;;;17.45;100.00;101550.41;5128119;28;20039;-64
2023/09/02 02:56:47;;;;;;;16.50;13.70;;;;;;;17.33;100.00;101539.81;5093703;28;20026;-63
2023/09/02 02:59:13;;;;;;;14.10;12.73;;;;;;;17.40;100.00;101551.75;5094339;28;20030;-63
2023/09/02 03:01:38;;;;;;;14.50;13.05;;;;;;;17.47;100.00;101555.66;5093803;28;20051;-63
2023/09/02 03:04:04;;;;;;;14.93;11.95;;;;;;;17.45;100.00;101554.94;5111672;28;20024;-63
2023/09/02 03:06:29;;;;;;;15.25;13.32;;;;;;;17.48;100.00;101555.53;5113598;28;20047;-63
2023/09/02 03:08:54;;;;;;;14.10;12.80;;;;;;;17.49;100.00;101551.00;5132537;28;20031;-63
2023/09/02 03:11:20;;;;;;;14.82;12.68;;;;;;;17.51;100.00;101549.06;5132242;28;20108;-63
2023/09/02 03:13:45;;;;;;;16.80;13.00;;;;;;;17.44;100.00;101548.72;5130281;28;20023;-63
2023/09/02 03:16:10;;;;;;;13.32;12.10;;;;;;;17.41;100.00;101542.69;5112260;28;20019;-63
2023/09/02 03:18:36;;;;;;;13.60;12.23;;;;;;;17.41;100.00;101550.78;5111997;28;20367;-63
2023/09/02 03:21:06;;;;;;;13.25;11.88;;;;;;;17.43;100.00;101546.13;5094005;28;20031;-63
2023/09/02 03:23:35;;;;;;;13.95;12.73;;;;;;;17.38;100.00;101548.34;5094253;28;20383;-63
2023/09/02 03:26:10;;;;;;;;;;;;;;;17.53;100.00;101551.63;5112305;28;20040;-63
2023/09/02 03:28:36;;;;;;;13.45;12.07;;;;;;;17.42;100.00;101547.13;5116000;28;19908;-63
2023/09/02 03:31:08;;;;;;;14.13;12.48;;;;;;;17.35;100.00;101540.50;5115108;28;20035;-63
2023/09/02 03:33:34;;;;;;;13.60;12.20;;;;;;;17.26;100.00;101534.03;5111522;27;20454;-64
2023/09/02 03:36:00;;;;;;;11.85;10.77;;;;;;;17.30;100.00;101557.03;5097041;28;20129;-63
2023/09/02 03:38:27;;;;;;;13.15;11.95;;;;;;;17.25;100.00;101553.84;5115527;28;20024;-63
2023/09/02 03:40:52;;;;;;;12.35;11.05;;;;;;;17.23;100.00;101555.78;5097325;28;20377;-63
2023/09/02 03:43:18;;;;;;;11.90;10.70;;;;;;;17.24;100.00;101549.47;5095898;28;20537;-63
2023/09/02 03:45:43;;;;;;;11.80;10.60;;;;;;;17.18;100.00;101566.94;5115452;28;20164;-63
2023/09/02 03:48:08;;;;;;;12.38;10.65;;;;;;;17.21;100.00;101568.53;5115240;28;20017;-64
2023/09/02 03:51:00;;;;;;;12.57;11.48;;;;;;;17.24;100.00;101582.56;5115405;27;20051;-63
2023/09/02 03:53:28;;;;;;;12.35;11.13;;;;;;;17.23;100.00;101575.47;5083806;28;20123;-63
2023/09/02 03:55:54;;;;;;;12.88;11.50;;;;;;;17.18;100.00;101563.41;5115430;28;20030;-63
2023/09/02 03:58:19;;;;;;;12.43;11.27;;;;;;;17.29;100.00;101574.13;5096852;28;20024;-63
2023/09/02 04:00:45;;;;;;;13.40;10.63;;;;;;;17.24;100.00;101570.97;5115024;28;20019;-63
2023/09/02 04:03:12;;;;;;;11.55;10.45;;;;;;;17.25;100.00;101576.22;5098896;28;20059;-63
2023/09/02 04:05:38;;;;;;;11.30;9.77;;;;;;;17.19;100.00;101565.94;5094076;28;20024;-63
2023/09/02 04:08:04;;;;;;;11.20;9.73;;;;;;;17.15;100.00;101571.72;5096899;28;20050;-63
2023/09/02 04:10:31;;;;;;;10.38;9.48;;;;;;;17.18;100.00;101574.16;5114919;28;20486;-63
2023/09/02 04:12:56;;;;;;;10.00;9.10;;;;;;;17.19;100.00;101574.00;5086475;28;20031;-63
2023/09/02 04:15:21;;;;;;;11.65;9.52;;;;;;;17.15;100.00;101569.03;5109407;28;20101;-63
2023/09/02 04:17:47;;;;;;;10.98;9.90;;;;;;;17.10;100.00;101568.53;5096422;28;20049;-63
2023/09/02 04:20:12;;;;;;;12.07;9.50;;;;;;;17.16;100.00;101576.09;5095961;28;20023;-63
2023/09/02 04:22:38;;;;;;;9.73;8.88;;;;;;;17.16;100.00;101566.19;5112752;28;20043;-62
2023/09/02 04:25:03;;;;;;;9.63;8.52;;;;;;;17.18;100.00;101571.47;5114787;27;20039;-63
2023/09/02 04:27:29;;;;;;;11.48;7.75;;;;;;;17.18;100.00;101574.16;5114815;28;20030;-63
2023/09/02 04:29:57;;;;;;;9.65;7.78;;;;;;;17.21;100.00;101576.59;5114367;28;20027;-63
2023/09/02 04:32:22;;;;;;;9.15;8.35;;;;;;;17.17;100.00;101573.28;5114508;28;20027;-63
2023/09/02 04:34:48;;;;;;;10.00;8.50;;;;;;;17.13;100.00;101573.66;5097133;28;20054;-63
2023/09/02 04:37:15;;;;;;;10.45;9.00;;;;;;;17.14;100.00;101586.94;5098328;28;20500;-63
2023/09/02 04:39:41;;;;;;;12.15;8.88;;;;;;;17.19;100.00;101587.44;5102400;28;20020;-63
2023/09/02 04:42:06;;;;;;;9.75;8.32;;;;;;;17.17;100.00;101578.66;5107703;28;20020;-63
2023/09/02 04:44:32;;;;;;;15.57;8.93;;;;;;;17.21;100.00;101582.81;5099741;28;20069;-63
2023/09/02 04:46:57;;;;;;;10.95;8.65;;;;;;;17.19;100.00;101579.38;5092439;28;20035;-63
2023/09/02 04:49:25;;;;;;;10.15;8.10;;;;;;;17.17;100.00;101585.88;5111524;28;20359;-63
2023/09/02 04:51:50;;;;;;;10.20;7.05;;;;;;;17.19;100.00;101594.66;5108356;28;20522;-63
2023/09/02 04:54:16;;;;;;;13.15;8.23;;;;;;;17.19;100.00;101592.84;5110607;28;20027;-63
2023/09/02 04:56:41;;;;;;;8.77;7.90;;;;;;;17.14;100.00;101595.03;5077284;27;20516;-63
2023/09/02 04:59:06;;;;;;;9.15;7.68;;;;;;;17.16;100.00;101589.53;5111699;27;20458;-63
2023/09/02 05:01:32;;;;;;;10.40;7.90;;;;;;;16.97;100.00;101563.25;5110155;28;20028;-63
2023/09/02 05:03:57;;;;;;;9.32;8.38;;;;;;;17.11;100.00;101594.41;5112172;28;20046;-62
2023/09/02 05:06:23;;;;;;;9.10;7.90;;;;;;;17.12;100.00;101597.00;5095772;28;20059;-63
2023/09/02 05:08:53;;;;;;;8.70;7.90;;;;;;;17.18;100.00;101601.03;5093581;28;20107;-62
2023/09/02 05:11:20;;;;;;;9.38;8.43;;;;;;;16.95;100.00;101563.38;5093220;28;20020;-63
2023/09/02 05:13:45;;;;;;;9.90;7.72;;;;;;;17.11;100.00;101599.78;5095111;28;20016;-63
2023/09/02 05:16:11;;;;;;;13.48;8.23;;;;;;;17.05;100.00;101600.28;5111562;28;20038;-63
2023/09/02 05:18:36;;;;;;;10.05;8.13;;;;;;;17.07;100.00;101614.47;5113313;28;20382;-64
2023/09/02 05:21:01;;;;;;;8.98;8.02;;;;;;;17.04;100.00;101618.25;5113119;28;20036;-63
2023/09/02 05:23:27;;;;;;;8.57;7.78;;;;;;;16.96;100.00;101608.06;5113205;28;20097;-62
2023/09/02 05:25:58;;;;;;;12.20;8.18;;;;;;;17.02;100.00;101617.50;5111212;28;20056;-62
2023/09/02 05:28:26;;;;;;;11.20;8.55;;;;;;;16.99;100.00;101623.09;5113037;28;20067;-63
2023/09/02 05:30:52;;;;;;;11.05;9.27;;;;;;;17.03;100.00;101621.91;5095049;28;20215;-62
2023/09/02 05:33:17;;;;;;;9.25;8.35;;;;;;;16.97;100.00;101628.63;5092982;28;20422;-64
2023/09/02 05:35:44;;;;;;;10.07;9.00;;;;;;;16.96;100.00;101636.78;5092679;28;20375;-62
2023/09/02 05:38:09;;;;;;;8.75;7.85;;;;;;;16.96;100.00;101631.41;5094108;28;20103;-63
2023/09/02 05:40:35;;;;;;;10.15;7.95;;;;;;;17.00;100.00;101647.19;5100669;27;20106;-63
2023/09/02 05:43:01;;;;;;;10.10;8.13;;;;;;;16.98;100.00;101645.59;5118870;27;20030;-63
2023/09/02 05:45:26;;;;;;;8.50;7.57;;;;;;;16.92;100.00;101621.88;5101195;28;20029;-63
2023/09/02 05:47:52;;;;;;;9.32;8.43;;;;;;;17.04;100.00;101631.69;5093408;28;20046;-63
2023/09/02 05:50:17;;;;;;;10.52;7.93;;;;;;;17.08;100.00;101632.28;5091758;28;20103;-63
2023/09/02 05:52:42;;;;;;;11.30;8.85;;;;;;;17.06;100.00;101628.84;5092617;28;20462;-63
2023/09/02 05:55:10;;;;;;;10.57;9.40;;;;;;;17.11;100.00;101630.22;5099754;28;20394;-63
2023/09/02 05:57:36;;;;;;;9.88;8.90;;;;;;;17.13;100.00;101639.00;5105474;28;20032;-63
2023/09/02 06:00:03;;;;;;;9.88;8.82;;;;;;;17.19;100.00;101645.75;5092372;28;20089;-63
2023/09/02 06:02:33;;;;;;;11.32;9.38;;;;;;;17.22;100.00;101640.97;5092574;28;20024;-62
2023/09/02 06:04:58;;;;;;;10.35;8.82;;;;;;;17.21;100.00;101635.75;5073817;28;20027;-63
2023/09/02 06:07:24;;;;;;;11.48;10.27;;;;;;;17.26;100.00;101644.28;5109602;28;20466;-63
2023/09/02 06:09:50;;;;;;;11.00;9.90;;;;;;;17.27;100.00;101642.47;5094337;28;20023;-63
2023/09/02 06:12:15;;;;;;;11.15;10.05;;;;;;;17.24;100.00;101647.09;5112538;28;20036;-62
2023/09/02 06:14:41;;;;;;;10.88;9.75;;;;;;;17.28;100.00;101655.78;5112232;28;20051;-62
2023/09/02 06:17:09;;;;;;;10.57;9.48;;;;;;;17.31;100.00;101660.06;5110821;28;20080;-63
2023/09/02 06:19:34;;;;;;;10.77;9.77;;;;;;;17.33;100.00;101663.50;5097305;28;20028;-63
2023/09/02 06:22:00;;;;;;;13.05;10.07;;;;;;;17.37;100.00;101670.34;5092390;28;20070;-63
2023/09/02 06:24:29;;;;;;;11.48;9.90;;;;;;;17.37;100.00;101663.13;5091596;28;20140;-62
2023/09/02 06:26:54;;;;;;;12.15;10.07;;;;;;;17.40;100.00;101670.09;5104337;28;20105;-63
2023/09/02 06:29:20;;;;;;;12.15;10.50;;;;;;;17.37;100.00;101664.97;5100045;28;20470;-63
2023/09/02 06:31:45;;;;;;;11.10;10.10;;;;;;;17.46;100.00;101683.06;5091938;28;20016;-63
2023/09/02 06:34:11;;;;;;;11.57;10.48;;;;;;;17.51;100.00;101691.63;5092006;28;20016;-63
2023/09/02 06:36:37;;;;;;;13.65;10.93;;;;;;;17.54;100.00;101690.53;5091266;28;20126;-64
2023/09/02 06:39:04;;;;;;;11.57;10.57;;;;;;;17.53;100.00;101686.09;5108634;28;20108;-63
2023/09/02 06:41:30;;;;;;;11.60;10.40;;;;;;;17.59;100.00;101699.94;5056990;28;20434;-62
2023/09/02 06:43:55;;;;;;;14.93;11.45;;;;;;;17.63;100.00;101706.78;5091374;28;20059;-64
2023/09/02 06:46:21;;;;;;;13.80;11.55;;;;;;;17.60;100.00;101708.88;5117196;28;20358;-63
2023/09/02 06:48:49;;;;;;;12.27;11.07;;;;;;;17.57;100.00;101709.97;5099125;28;20020;-63
2023/09/02 06:51:15;;;;;;;11.75;10.63;;;;;;;17.70;100.00;101717.91;5111489;28;20027;-62
2023/09/02 06:53:41;;;;;;;13.43;12.18;;;;;;;17.70;100.00;101716.06;5112245;28;20110;-63
2023/09/02 06:56:12;;;;;;;13.13;11.82;;;;;;;17.74;100.00;101726.63;5101221;28;20134;-63
2023/09/02 06:58:42;;;;;;;13.55;12.20;;;;;;;17.82;100.00;101733.13;5132541;28;20027;-63
2023/09/02 07:01:18;;;;;;;13.80;11.55;;;;;;;17.91;100.00;101743.16;5114126;27;20065;-62
2023/09/02 07:03:45;;;;;;;13.60;12.23;;;;;;;17.91;100.00;101743.16;5136766;27;20023;-63
2023/09/02 07:06:15;;;;;;;14.20;12.02;;;;;;;17.97;100.00;101749.91;5103695;28;20019;-63
2023/09/02 07:08:41;;;;;;;12.90;11.68;;;;;;;17.97;100.00;101746.31;5116139;28;20024;-63
2023/09/02 07:11:07;;;;;;;14.20;12.82;;;;;;;17.95;100.00;101759.06;5115771;28;20164;-63
2023/09/02 07:13:39;;;;;;;15.23;12.88;;;;;;;17.92;100.00;101757.47;5097543;28;20394;-63
2023/09/02 07:16:06;;;;;;;15.73;12.70;;;;;;;18.02;100.00;101763.81;5122305;27;20038;-63
2023/09/02 07:18:31;;;;;;;16.60;13.57;;;;;;;17.98;100.00;101767.75;5122736;27;20477;-62
2023/09/02 07:21:01;;;;;;;14.00;12.73;;;;;;;17.93;100.00;101764.56;5135714;27;20031;-63
2023/09/02 07:23:30;;;;;;;14.85;13.45;;;;;;;17.96;100.00;101771.53;5135883;27;20030;-63
2023/09/02 07:25:57;;;;;;;17.50;13.70;;;;;;;17.95;100.00;101775.22;5084443;28;20094;-63
2023/09/02 07:28:22;;;;;;;15.32;13.90;;;;;;;17.97;100.00;101776.81;5074947;28;20056;-63
2023/09/02 07:30:48;;;;;;;15.52;13.93;;;;;;;18.04;100.00;101774.50;5074923;28;20031;-63
2023/09/02 07:33:13;;;;;;;17.35;14.73;;;;;;;18.04;100.00;101772.66;5073693;28;20352;-63
2023/09/02 07:35:41;;;;;;;16.02;14.50;;;;;;;18.00;100.00;101770.31;5080892;28;20024;-63
2023/09/02 07:38:07;;;;;;;16.38;14.70;;;;;;;18.11;100.00;101773.84;5094904;28;20024;-63
2023/09/02 07:40:32;;;;;;;16.08;14.38;;;;;;;18.10;100.00;101766.78;5093501;28;20128;-63
2023/09/02 07:43:01;;;;;;;16.00;14.60;;;;;;;18.09;100.00;101766.91;5095336;28;20020;-62
2023/09/02 07:45:27;;;;;;;17.00;15.25;;;;;;;18.15;100.00;101767.25;5082947;28;20128;-63
2023/09/02 07:47:53;;;;;;;16.02;14.40;;;;;;;18.23;100.00;101790.88;5074847;28;20103;-63
2023/09/02 07:50:19;;;;;;;15.70;14.13;;;;;;;18.31;100.00;101795.66;5074064;28;20036;-63
2023/09/02 07:52:44;;;;;;;15.80;14.40;;;;;;;18.33;100.00;101796.38;5073179;28;20471;-63
2023/09/02 07:55:09;;;;;;;16.73;15.02;;;;;;;18.38;100.00;101799.53;5086177;28;20425;-63
2023/09/02 07:57:35;;;;;;;17.55;15.77;;;;;;;18.40;100.00;101800.28;5093558;28;20420;-62
2023/09/02 08:00:00;;;;;;;17.25;15.55;;;;;;;18.39;100.00;101798.59;5093554;28;20035;-63
2023/09/02 08:02:26;;;;;;;16.40;14.90;;;;;;;18.39;100.00;101806.66;5094800;28;20028;-63
2023/09/02 08:04:51;;;;;;;15.82;14.32;;;;;;;18.43;100.00;101800.03;5085139;28;20458;-63
2023/09/02 08:07:17;;;;;;;15.93;13.90;;;;;;;18.42;100.00;101803.72;5074105;28;20559;-63
2023/09/02 08:09:42;;;;;;;17.80;16.00;;;;;;;18.48;100.00;101813.16;5074217;28;20058;-63
2023/09/02 08:12:08;;;;;;;16.85;14.82;;;;;;;18.43;100.00;101810.81;5073919;28;20110;-62
2023/09/02 08:14:36;;;;;;;18.58;15.43;;;;;;;18.42;100.00;101802.88;5075733;28;20026;-63
2023/09/02 08:17:01;;;;;;;19.92;18.13;;;;;;;18.49;100.00;101815.69;5094802;28;20657;-63
2023/09/02 08:19:33;;;;;;;20.17;18.20;;;;;;;18.50;100.00;101817.44;5092412;28;20036;-63
2023/09/02 08:21:58;;;;;;;21.30;18.77;;;;;;;18.52;100.00;101822.69;5093043;28;20020;-63
2023/09/02 08:24:23;;;;;;;21.42;18.75;;;;;;;18.51;100.00;101818.28;5092642;28;20038;-62
2023/09/02 08:26:54;;;;;;;22.10;20.10;;;;;;;18.52;100.00;101818.13;5113396;28;20028;-62
2023/09/02 08:29:19;;;;;;;43.67;39.83;;;;;;;18.52;100.00;101819.97;5113262;28;20027;-63
2023/09/02 08:31:45;;;;;;;23.33;21.23;;;;;;;18.58;100.00;101822.19;5113251;28;20027;-63
2023/09/02 08:34:11;;;;;;;24.02;21.92;;;;;;;18.60;100.00;101828.31;5096871;28;20019;-63
2023/09/02 08:36:36;;;;;;;21.77;19.85;;;;;;;18.62;100.00;101831.75;5133003;28;20094;-63
2023/09/02 08:39:05;;;;;;;24.17;22.13;;;;;;;18.63;100.00;101829.91;5133978;28;20110;-62
2023/09/02 08:41:34;;;;;;;24.25;22.25;;;;;;;18.66;100.00;101835.88;5133666;28;20019;-62
2023/09/02 08:44:04;;;;;;;25.92;23.33;;;;;;;18.56;100.00;101832.22;5127744;28;20024;-63
2023/09/02 08:46:32;;;;;;;24.83;22.38;;;;;;;18.63;100.00;101843.38;5113234;28;20024;-62
2023/09/02 08:48:58;;;;;;;25.05;22.95;;;;;;;18.71;100.00;101847.16;5095146;28;20035;-63
2023/09/02 08:51:25;;;;;;;23.48;21.38;;;;;;;18.74;100.00;101836.16;5112024;28;20408;-62
2023/09/02 08:53:54;;;;;;;23.13;21.10;;;;;;;18.87;100.00;101841.38;5109812;28;20026;-62
2023/09/02 08:56:21;;;;;;;24.35;22.17;;;;;;;18.90;100.00;101845.69;5101545;28;20043;-63
2023/09/02 08:58:47;;;;;;;23.98;21.88;;;;;;;18.94;100.00;101841.72;5107324;28;20478;-63
2023/09/02 09:01:19;;;;;;;25.15;22.73;;;;;;;18.98;100.00;101843.22;5109383;28;20031;-62
2023/09/02 09:04:03;;;;;;;26.25;24.00;;;;;;;19.09;100.00;101850.38;5118361;28;20018;-63
2023/09/02 09:06:28;;;;;;;24.13;22.13;;;;;;;19.08;100.00;101846.84;5132931;28;20029;-63
2023/09/02 09:08:55;;;;;;;27.45;25.05;;;;;;;19.08;100.00;101854.94;5133479;28;20422;-63
2023/09/02 09:11:22;;;;;;;28.48;26.13;;;;;;;19.01;100.00;101845.66;5114689;28;20128;-62
2023/09/02 09:13:49;;;;;;;29.58;26.90;;;;;;;19.04;100.00;101856.19;5130486;28;20016;-62
2023/09/02 09:16:25;;;;;;;27.90;25.60;;;;;;;19.13;100.00;101857.25;5120488;28;20028;-63
2023/09/02 09:18:51;;;;;;;27.50;25.27;;;;;;;19.23;100.00;101856.34;5089655;28;20028;-63
2023/09/02 09:21:17;;;;;;;29.65;27.23;;;;;;;19.32;100.00;101865.50;5111833;28;20064;-63
2023/09/02 09:23:42;;;;;;;29.88;27.38;;;;;;;19.39;100.00;101863.16;5117546;27;20473;-63
2023/09/02 09:26:10;;;;;;;30.80;28.15;;;;;;;19.40;100.00;101863.03;5073139;28;1119406;-63
2023/09/02 09:28:50;;;;;;;29.88;27.25;;;;;;;19.50;100.00;101865.78;5094877;28;20037;-62
2023/09/02 09:31:17;;;;;;;31.10;28.48;;;;;;;19.55;100.00;101866.25;5092708;28;20059;-62
2023/09/02 09:34:03;;;;;;;32.88;29.92;;;;;;;19.66;100.00;101878.88;5074745;28;20043;-63
2023/09/02 09:36:30;;;;;;;32.20;29.35;;;;;;;19.62;100.00;101886.38;5131720;27;20034;-62
2023/09/02 09:38:57;;;;;;;31.85;29.25;;;;;;;19.62;100.00;101891.75;5115156;27;20012;-62
2023/09/02 09:41:24;;;;;;;31.98;29.23;;;;;;;19.63;100.00;101898.88;5133273;27;20023;-62
2023/09/02 09:44:22;;;;;;;30.70;27.83;;;;;;;19.82;100.00;101900.03;5125002;27;20032;-63
2023/09/02 09:46:51;;;;;;;33.33;30.52;;;;;;;19.72;100.00;101899.97;5076185;28;20122;-62
2023/09/02 09:49:32;;;;;;;31.02;28.50;;;;;;;19.79;100.00;101898.44;5093212;28;20432;-62
2023/09/02 09:52:01;;;;;;;32.35;29.58;;;;;;;19.74;100.00;101898.00;5100710;28;20034;-63
2023/09/02 09:54:47;;;;;;;32.40;29.67;;;;;;;19.81;100.00;101901.03;5124462;27;20023;-63
2023/09/02 09:57:26;;;;;;;31.77;29.10;;;;;;;19.72;100.00;101898.13;5118046;27;20309;-63
2023/09/02 09:59:52;;;;;;;31.92;29.17;;;;;;;19.89;100.00;101901.22;5112772;28;20498;-62
2023/09/02 10:02:21;;;;;;;32.78;29.98;;;;;;;19.96;100.00;101903.25;5112425;27;20028;-63
2023/09/02 10:04:54;;;;;;;;;;;;;;;20.19;100.00;101895.84;5110149;27;20069;-62
2023/09/02 10:07:27;;;;;;;32.92;29.38;;;;;;;20.18;100.00;101894.16;5098663;28;19999;-64
2023/09/02 10:09:58;;;;;;;30.05;27.50;;;;;;;20.36;100.00;101901.66;5074049;28;20032;-62
2023/09/02 10:12:23;;;;;;;30.05;27.33;;;;;;;20.41;100.00;101896.66;5092299;28;20039;-63
2023/09/02 10:14:51;;;;;;;30.30;27.42;;;;;;;20.41;100.00;101905.66;5116810;27;20028;-62
2023/09/02 10:17:18;;;;;;;31.40;28.80;;;;;;;20.38;100.00;101911.34;5094069;28;20027;-62
2023/09/02 10:19:45;;;;;;;29.13;26.83;;;;;;;20.55;100.00;101925.22;5093330;28;20422;-63
2023/09/02 10:22:19;;;;;;;28.30;26.00;;;;;;;20.62;100.00;101929.97;5117240;27;20106;-63
2023/09/02 10:24:48;;;;;;;29.70;27.17;;;;;;;20.54;100.00;101918.13;5132417;27;20504;-62
2023/09/02 10:27:21;;;;;;;29.23;26.75;;;;;;;20.49;100.00;101923.03;5133018;27;20114;-63
2023/09/02 10:29:53;;;;;;;30.08;27.63;;;;;;;20.41;100.00;101916.47;5132721;27;20102;-62
2023/09/02 10:32:23;;;;;;;28.48;26.15;;;;;;;20.44;100.00;101928.81;5132570;27;20050;-62
2023/09/02 10:34:58;;;;;;;28.13;25.70;;;;;;;20.45;100.00;101924.31;5130815;27;20030;-63
2023/09/02 10:37:28;;;;;;;27.65;25.45;;;;;;;20.56;100.00;101927.81;5119171;27;20027;-62
2023/09/02 10:40:04;;;;;;;26.98;24.67;;;;;;;20.60;100.00;101941.91;5112059;28;20023;-62
2023/09/02 10:42:30;;;;;;;28.40;26.10;;;;;;;20.62;100.00;101931.81;5099517;27;20389;-62
2023/09/02 10:44:55;;;;;;;29.23;26.70;;;;;;;20.61;100.00;101936.34;5132504;27;20027;-63
2023/09/02 10:47:21;;;;;;;27.17;24.75;;;;;;;20.66;100.00;101941.34;5100785;28;20408;-62
2023/09/02 10:49:47;;;;;;;29.17;26.08;;;;;;;20.66;100.00;101935.09;5111449;28;20040;-63
2023/09/02 10:52:15;;;;;;;27.55;25.15;;;;;;;20.77;100.00;101943.97;5094020;28;20080;-63
2023/09/02 10:55:08;;;;;;;30.23;27.42;;;;;;;20.81;100.00;101942.69;5112893;28;20091;-63
2023/09/02 10:57:45;;;;;;;29.83;27.20;;;;;;;20.77;100.00;101940.41;5112103;28;20073;-62
2023/09/02 11:00:12;;;;;;;29.77;27.13;;;;;;;20.77;100.00;101943.97;5093646;28;20028;-63
2023/09/02 11:02:41;;;;;;;31.38;28.55;;;;;;;20.70;100.00;101950.03;5120443;28;20031;-63
2023/09/02 11:05:06;;;;;;;;;;;;;;;20.90;100.00;101940.16;5132385;28;20035;-63